sensor_id;sensor_type;location;lat;lon;timestamp;P1;durP1;ratioP1;P2;durP2;ratioP2
72974;SDS011;61166;54.228;37.632;2023-07-31T00:00:57;361.87;;;133.93;;
72974;SDS011;61166;54.228;37.632;2023-07-31T00:03:24;358.80;;;132.73;;
72974;SDS011;61166;54.228;37.632;2023-07-31T00:05:50;339.13;;;129.18;;
72974;SDS011;61166;54.228;37.632;2023-07-31T00:08:17;363.15;;;133.98;;
72974;SDS011;61166;54.228;37.632;2023-07-31T00:10:43;351.23;;;130.52;;
72974;SDS011;61166;54.228;37.632;2023-07-31T00:13:10;368.23;;;135.03;;
72974;SDS011;61166;54.228;37.632;2023-07-31T00:15:38;381.10;;;138.75;;
72974;SDS011;61166;54.228;37.632;2023-07-31T00:18:04;379.40;;;138.35;;
72974;SDS011;61166;54.228;37.632;2023-07-31T00:20:31;366.42;;;135.77;;
72974;SDS011;61166;54.228;37.632;2023-07-31T00:22:57;373.13;;;136.38;;
72974;SDS011;61166;54.228;37.632;2023-07-31T00:25:23;377.73;;;137.47;;
72974;SDS011;61166;54.228;37.632;2023-07-31T00:27:50;398.33;;;142.30;;
72974;SDS011;61166;54.228;37.632;2023-07-31T00:30:16;395.67;;;140.57;;
72974;SDS011;61166;54.228;37.632;2023-07-31T00:32:43;394.77;;;139.90;;
72974;SDS011;61166;54.228;37.632;2023-07-31T00:35:09;373.77;;;135.57;;
72974;SDS011;61166;54.228;37.632;2023-07-31T00:37:36;385.83;;;138.10;;
72974;SDS011;61166;54.228;37.632;2023-07-31T00:40:02;392.67;;;140.25;;
72974;SDS011;61166;54.228;37.632;2023-07-31T00:42:29;354.13;;;131.65;;
72974;SDS011;61166;54.228;37.632;2023-07-31T00:44:56;385.45;;;138.90;;
72974;SDS011;61166;54.228;37.632;2023-07-31T00:47:22;348.27;;;130.32;;
72974;SDS011;61166;54.228;37.632;2023-07-31T00:49:49;372.83;;;135.47;;
72974;SDS011;61166;54.228;37.632;2023-07-31T00:52:15;356.05;;;132.00;;
72974;SDS011;61166;54.228;37.632;2023-07-31T00:54:42;369.98;;;135.88;;
72974;SDS011;61166;54.228;37.632;2023-07-31T00:57:08;368.85;;;133.77;;
72974;SDS011;61166;54.228;37.632;2023-07-31T00:59:35;356.10;;;132.45;;
72974;SDS011;61166;54.228;37.632;2023-07-31T01:02:02;354.87;;;131.77;;
72974;SDS011;61166;54.228;37.632;2023-07-31T01:04:28;350.27;;;130.85;;
72974;SDS011;61166;54.228;37.632;2023-07-31T01:12:03;343.15;;;128.30;;
72974;SDS011;61166;54.228;37.632;2023-07-31T01:14:30;356.03;;;131.63;;
72974;SDS011;61166;54.228;37.632;2023-07-31T01:16:56;378.70;;;137.07;;
72974;SDS011;61166;54.228;37.632;2023-07-31T01:19:24;347.95;;;129.43;;
72974;SDS011;61166;54.228;37.632;2023-07-31T01:22:15;339.35;;;127.75;;
72974;SDS011;61166;54.228;37.632;2023-07-31T01:27:31;386.23;;;138.57;;
72974;SDS011;61166;54.228;37.632;2023-07-31T01:30:08;320.75;;;122.95;;
72974;SDS011;61166;54.228;37.632;2023-07-31T01:32:42;318.33;;;123.13;;
72974;SDS011;61166;54.228;37.632;2023-07-31T01:35:10;362.10;;;133.95;;
72974;SDS011;61166;54.228;37.632;2023-07-31T01:37:36;332.05;;;126.38;;
72974;SDS011;61166;54.228;37.632;2023-07-31T01:40:03;327.93;;;124.27;;
72974;SDS011;61166;54.228;37.632;2023-07-31T01:42:30;357.70;;;132.48;;
72974;SDS011;61166;54.228;37.632;2023-07-31T01:44:57;385.65;;;139.57;;
72974;SDS011;61166;54.228;37.632;2023-07-31T01:47:23;364.55;;;134.35;;
72974;SDS011;61166;54.228;37.632;2023-07-31T01:49:50;348.73;;;130.55;;
72974;SDS011;61166;54.228;37.632;2023-07-31T01:52:16;384.07;;;138.43;;
72974;SDS011;61166;54.228;37.632;2023-07-31T01:54:43;350.08;;;129.75;;
72974;SDS011;61166;54.228;37.632;2023-07-31T01:57:09;390.13;;;140.00;;
72974;SDS011;61166;54.228;37.632;2023-07-31T01:59:36;334.17;;;127.00;;
72974;SDS011;61166;54.228;37.632;2023-07-31T02:02:02;362.23;;;132.98;;
72974;SDS011;61166;54.228;37.632;2023-07-31T02:04:29;326.70;;;124.03;;
72974;SDS011;61166;54.228;37.632;2023-07-31T02:06:55;316.23;;;121.78;;
72974;SDS011;61166;54.228;37.632;2023-07-31T02:09:22;315.98;;;122.15;;
72974;SDS011;61166;54.228;37.632;2023-07-31T02:11:48;292.33;;;116.95;;
72974;SDS011;61166;54.228;37.632;2023-07-31T02:14:14;297.08;;;117.70;;
72974;SDS011;61166;54.228;37.632;2023-07-31T02:16:41;292.97;;;117.03;;
72974;SDS011;61166;54.228;37.632;2023-07-31T02:19:08;299.23;;;118.28;;
72974;SDS011;61166;54.228;37.632;2023-07-31T02:21:34;288.38;;;114.85;;
72974;SDS011;61166;54.228;37.632;2023-07-31T02:24:01;298.30;;;116.95;;
72974;SDS011;61166;54.228;37.632;2023-07-31T02:26:27;295.65;;;117.25;;
72974;SDS011;61166;54.228;37.632;2023-07-31T02:28:54;235.03;;;103.27;;
72974;SDS011;61166;54.228;37.632;2023-07-31T02:31:20;244.23;;;104.10;;
72974;SDS011;61166;54.228;37.632;2023-07-31T02:33:49;242.40;;;104.18;;
72974;SDS011;61166;54.228;37.632;2023-07-31T02:36:15;232.73;;;102.38;;
72974;SDS011;61166;54.228;37.632;2023-07-31T02:38:41;235.98;;;102.50;;
72974;SDS011;61166;54.228;37.632;2023-07-31T02:41:08;255.87;;;107.73;;
72974;SDS011;61166;54.228;37.632;2023-07-31T02:43:34;221.43;;;98.35;;
72974;SDS011;61166;54.228;37.632;2023-07-31T02:46:01;249.73;;;105.45;;
72974;SDS011;61166;54.228;37.632;2023-07-31T02:48:27;250.63;;;106.43;;
72974;SDS011;61166;54.228;37.632;2023-07-31T02:50:54;258.13;;;107.10;;
72974;SDS011;61166;54.228;37.632;2023-07-31T02:53:20;267.93;;;111.13;;
72974;SDS011;61166;54.228;37.632;2023-07-31T02:55:47;263.17;;;110.05;;
72974;SDS011;61166;54.228;37.632;2023-07-31T02:58:13;240.43;;;103.45;;
72974;SDS011;61166;54.228;37.632;2023-07-31T03:00:43;250.80;;;106.90;;
72974;SDS011;61166;54.228;37.632;2023-07-31T03:03:10;282.27;;;114.88;;
72974;SDS011;61166;54.228;37.632;2023-07-31T03:05:37;291.07;;;116.67;;
72974;SDS011;61166;54.228;37.632;2023-07-31T03:08:04;284.77;;;115.45;;
72974;SDS011;61166;54.228;37.632;2023-07-31T03:10:30;282.73;;;113.68;;
72974;SDS011;61166;54.228;37.632;2023-07-31T03:12:57;284.70;;;115.57;;
72974;SDS011;61166;54.228;37.632;2023-07-31T03:15:23;301.63;;;118.07;;
72974;SDS011;61166;54.228;37.632;2023-07-31T03:17:49;271.20;;;112.33;;
72974;SDS011;61166;54.228;37.632;2023-07-31T03:20:16;235.88;;;103.63;;
72974;SDS011;61166;54.228;37.632;2023-07-31T03:22:45;219.07;;;98.82;;
72974;SDS011;61166;54.228;37.632;2023-07-31T03:25:12;255.38;;;109.75;;
72974;SDS011;61166;54.228;37.632;2023-07-31T03:27:38;255.55;;;112.45;;
72974;SDS011;61166;54.228;37.632;2023-07-31T03:30:04;301.37;;;123.53;;
72974;SDS011;61166;54.228;37.632;2023-07-31T03:32:31;309.52;;;123.47;;
72974;SDS011;61166;54.228;37.632;2023-07-31T03:34:58;253.15;;;112.85;;
72974;SDS011;61166;54.228;37.632;2023-07-31T03:37:24;189.00;;;95.57;;
72974;SDS011;61166;54.228;37.632;2023-07-31T03:39:51;170.35;;;91.28;;
72974;SDS011;61166;54.228;37.632;2023-07-31T03:42:17;164.83;;;87.87;;
72974;SDS011;61166;54.228;37.632;2023-07-31T03:44:44;203.48;;;103.10;;
72974;SDS011;61166;54.228;37.632;2023-07-31T03:47:10;191.85;;;100.18;;
72974;SDS011;61166;54.228;37.632;2023-07-31T03:49:37;176.07;;;95.72;;
72974;SDS011;61166;54.228;37.632;2023-07-31T03:52:03;65.68;;;51.38;;
72974;SDS011;61166;54.228;37.632;2023-07-31T03:54:30;65.90;;;54.83;;
72974;SDS011;61166;54.228;37.632;2023-07-31T03:56:56;70.38;;;55.25;;
72974;SDS011;61166;54.228;37.632;2023-07-31T03:59:23;47.63;;;41.13;;
72974;SDS011;61166;54.228;37.632;2023-07-31T04:01:50;49.85;;;41.80;;
72974;SDS011;61166;54.228;37.632;2023-07-31T04:04:16;51.53;;;39.28;;
72974;SDS011;61166;54.228;37.632;2023-07-31T04:06:42;43.93;;;27.37;;
72974;SDS011;61166;54.228;37.632;2023-07-31T04:09:09;37.08;;;25.23;;
72974;SDS011;61166;54.228;37.632;2023-07-31T04:11:35;33.88;;;19.92;;
72974;SDS011;61166;54.228;37.632;2023-07-31T04:14:02;37.78;;;22.45;;
72974;SDS011;61166;54.228;37.632;2023-07-31T04:16:28;31.90;;;18.30;;
72974;SDS011;61166;54.228;37.632;2023-07-31T04:18:55;29.37;;;19.73;;
72974;SDS011;61166;54.228;37.632;2023-07-31T04:21:21;29.60;;;20.88;;
72974;SDS011;61166;54.228;37.632;2023-07-31T04:23:48;31.25;;;21.27;;
72974;SDS011;61166;54.228;37.632;2023-07-31T04:26:14;26.10;;;18.02;;
72974;SDS011;61166;54.228;37.632;2023-07-31T04:28:40;32.33;;;20.02;;
72974;SDS011;61166;54.228;37.632;2023-07-31T04:31:07;32.57;;;20.33;;
72974;SDS011;61166;54.228;37.632;2023-07-31T04:33:34;30.95;;;18.63;;
72974;SDS011;61166;54.228;37.632;2023-07-31T04:36:00;29.38;;;20.90;;
72974;SDS011;61166;54.228;37.632;2023-07-31T04:38:27;32.40;;;19.58;;
72974;SDS011;61166;54.228;37.632;2023-07-31T04:40:53;21.95;;;17.45;;
72974;SDS011;61166;54.228;37.632;2023-07-31T04:43:20;29.60;;;19.80;;
72974;SDS011;61166;54.228;37.632;2023-07-31T04:45:46;31.27;;;19.75;;
72974;SDS011;61166;54.228;37.632;2023-07-31T04:48:12;31.55;;;22.33;;
72974;SDS011;61166;54.228;37.632;2023-07-31T04:50:39;27.27;;;20.15;;
72974;SDS011;61166;54.228;37.632;2023-07-31T04:53:06;26.08;;;20.63;;
72974;SDS011;61166;54.228;37.632;2023-07-31T04:55:32;27.77;;;19.33;;
72974;SDS011;61166;54.228;37.632;2023-07-31T04:57:59;28.55;;;20.25;;
72974;SDS011;61166;54.228;37.632;2023-07-31T05:00:25;31.58;;;19.95;;
72974;SDS011;61166;54.228;37.632;2023-07-31T05:02:52;26.92;;;19.38;;
72974;SDS011;61166;54.228;37.632;2023-07-31T05:05:18;30.85;;;21.27;;
72974;SDS011;61166;54.228;37.632;2023-07-31T05:07:45;27.33;;;17.00;;
72974;SDS011;61166;54.228;37.632;2023-07-31T05:10:11;28.23;;;19.42;;
72974;SDS011;61166;54.228;37.632;2023-07-31T05:12:37;30.38;;;21.33;;
72974;SDS011;61166;54.228;37.632;2023-07-31T05:15:04;34.95;;;21.38;;
72974;SDS011;61166;54.228;37.632;2023-07-31T05:17:31;29.60;;;20.30;;
72974;SDS011;61166;54.228;37.632;2023-07-31T05:19:57;27.10;;;18.90;;
72974;SDS011;61166;54.228;37.632;2023-07-31T05:22:24;29.50;;;19.77;;
72974;SDS011;61166;54.228;37.632;2023-07-31T05:24:50;28.35;;;20.00;;
72974;SDS011;61166;54.228;37.632;2023-07-31T05:27:17;26.75;;;18.67;;
72974;SDS011;61166;54.228;37.632;2023-07-31T05:29:43;34.55;;;20.77;;
72974;SDS011;61166;54.228;37.632;2023-07-31T05:32:11;29.43;;;20.20;;
72974;SDS011;61166;54.228;37.632;2023-07-31T05:34:38;28.05;;;19.77;;
72974;SDS011;61166;54.228;37.632;2023-07-31T05:37:04;27.33;;;21.77;;
72974;SDS011;61166;54.228;37.632;2023-07-31T05:39:32;29.88;;;21.85;;
72974;SDS011;61166;54.228;37.632;2023-07-31T05:41:58;25.38;;;19.77;;
72974;SDS011;61166;54.228;37.632;2023-07-31T05:44:25;24.07;;;17.53;;
72974;SDS011;61166;54.228;37.632;2023-07-31T05:46:51;19.77;;;17.67;;
72974;SDS011;61166;54.228;37.632;2023-07-31T05:49:18;32.28;;;25.95;;
72974;SDS011;61166;54.228;37.632;2023-07-31T05:51:44;20.70;;;17.58;;
72974;SDS011;61166;54.228;37.632;2023-07-31T05:54:10;20.02;;;17.77;;
72974;SDS011;61166;54.228;37.632;2023-07-31T05:56:37;20.57;;;16.30;;
72974;SDS011;61166;54.228;37.632;2023-07-31T05:59:04;29.08;;;17.30;;
72974;SDS011;61166;54.228;37.632;2023-07-31T06:01:30;28.40;;;20.10;;
72974;SDS011;61166;54.228;37.632;2023-07-31T06:03:57;24.63;;;19.63;;
72974;SDS011;61166;54.228;37.632;2023-07-31T06:06:24;19.17;;;16.33;;
72974;SDS011;61166;54.228;37.632;2023-07-31T06:08:50;23.30;;;17.23;;
72974;SDS011;61166;54.228;37.632;2023-07-31T06:11:17;20.92;;;16.85;;
72974;SDS011;61166;54.228;37.632;2023-07-31T06:13:43;21.67;;;19.52;;
72974;SDS011;61166;54.228;37.632;2023-07-31T06:16:10;20.27;;;16.23;;
72974;SDS011;61166;54.228;37.632;2023-07-31T06:18:36;20.05;;;18.00;;
72974;SDS011;61166;54.228;37.632;2023-07-31T06:21:03;17.07;;;14.53;;
72974;SDS011;61166;54.228;37.632;2023-07-31T06:23:29;18.38;;;14.38;;
72974;SDS011;61166;54.228;37.632;2023-07-31T06:25:55;22.05;;;17.35;;
72974;SDS011;61166;54.228;37.632;2023-07-31T06:28:26;23.40;;;17.63;;
72974;SDS011;61166;54.228;37.632;2023-07-31T06:30:53;25.88;;;16.88;;
72974;SDS011;61166;54.228;37.632;2023-07-31T06:33:20;23.83;;;16.33;;
72974;SDS011;61166;54.228;37.632;2023-07-31T06:35:46;20.60;;;15.02;;
72974;SDS011;61166;54.228;37.632;2023-07-31T06:38:13;34.47;;;21.65;;
72974;SDS011;61166;54.228;37.632;2023-07-31T06:40:39;30.55;;;19.25;;
72974;SDS011;61166;54.228;37.632;2023-07-31T06:43:06;26.60;;;18.60;;
72974;SDS011;61166;54.228;37.632;2023-07-31T06:45:33;19.27;;;15.50;;
72974;SDS011;61166;54.228;37.632;2023-07-31T06:48:00;21.85;;;16.60;;
72974;SDS011;61166;54.228;37.632;2023-07-31T06:50:28;113.15;;;52.50;;
72974;SDS011;61166;54.228;37.632;2023-07-31T06:52:55;19.02;;;14.93;;
72974;SDS011;61166;54.228;37.632;2023-07-31T06:55:21;16.98;;;14.25;;
72974;SDS011;61166;54.228;37.632;2023-07-31T06:57:48;15.53;;;13.87;;
72974;SDS011;61166;54.228;37.632;2023-07-31T07:00:16;14.18;;;12.68;;
72974;SDS011;61166;54.228;37.632;2023-07-31T07:02:42;16.63;;;14.93;;
72974;SDS011;61166;54.228;37.632;2023-07-31T07:05:09;14.27;;;12.82;;
72974;SDS011;61166;54.228;37.632;2023-07-31T07:07:37;14.68;;;13.40;;
72974;SDS011;61166;54.228;37.632;2023-07-31T07:10:04;14.30;;;12.93;;
72974;SDS011;61166;54.228;37.632;2023-07-31T07:12:31;13.77;;;11.35;;
72974;SDS011;61166;54.228;37.632;2023-07-31T07:14:58;13.88;;;11.98;;
72974;SDS011;61166;54.228;37.632;2023-07-31T07:17:25;13.77;;;11.82;;
72974;SDS011;61166;54.228;37.632;2023-07-31T07:19:52;13.35;;;11.52;;
72974;SDS011;61166;54.228;37.632;2023-07-31T07:22:18;144.87;;;116.37;;
72974;SDS011;61166;54.228;37.632;2023-07-31T07:24:45;15.85;;;13.38;;
72974;SDS011;61166;54.228;37.632;2023-07-31T07:27:11;15.30;;;13.80;;
72974;SDS011;61166;54.228;37.632;2023-07-31T07:29:37;16.08;;;14.38;;
72974;SDS011;61166;54.228;37.632;2023-07-31T07:32:04;13.43;;;12.07;;
72974;SDS011;61166;54.228;37.632;2023-07-31T07:34:31;14.17;;;12.90;;
72974;SDS011;61166;54.228;37.632;2023-07-31T07:36:57;12.80;;;11.60;;
72974;SDS011;61166;54.228;37.632;2023-07-31T07:39:24;13.38;;;12.25;;
72974;SDS011;61166;54.228;37.632;2023-07-31T07:41:50;10.38;;;9.35;;
72974;SDS011;61166;54.228;37.632;2023-07-31T07:44:17;12.23;;;11.18;;
72974;SDS011;61166;54.228;37.632;2023-07-31T07:46:43;13.10;;;10.20;;
72974;SDS011;61166;54.228;37.632;2023-07-31T07:49:10;10.85;;;9.75;;
72974;SDS011;61166;54.228;37.632;2023-07-31T07:51:36;11.82;;;10.82;;
72974;SDS011;61166;54.228;37.632;2023-07-31T07:54:03;11.07;;;9.95;;
72974;SDS011;61166;54.228;37.632;2023-07-31T07:56:30;20.85;;;9.75;;
72974;SDS011;61166;54.228;37.632;2023-07-31T07:58:57;11.33;;;10.23;;
72974;SDS011;61166;54.228;37.632;2023-07-31T08:01:23;10.38;;;9.43;;
72974;SDS011;61166;54.228;37.632;2023-07-31T08:03:49;9.90;;;8.80;;
72974;SDS011;61166;54.228;37.632;2023-07-31T08:06:16;12.95;;;8.95;;
72974;SDS011;61166;54.228;37.632;2023-07-31T08:08:43;8.88;;;8.07;;
72974;SDS011;61166;54.228;37.632;2023-07-31T08:11:09;9.50;;;8.53;;
72974;SDS011;61166;54.228;37.632;2023-07-31T08:13:36;11.88;;;9.30;;
72974;SDS011;61166;54.228;37.632;2023-07-31T08:16:03;10.60;;;9.50;;
72974;SDS011;61166;54.228;37.632;2023-07-31T08:18:33;10.07;;;9.05;;
72974;SDS011;61166;54.228;37.632;2023-07-31T08:21:02;11.77;;;10.75;;
72974;SDS011;61166;54.228;37.632;2023-07-31T08:23:28;9.77;;;8.90;;
72974;SDS011;61166;54.228;37.632;2023-07-31T08:25:55;10.20;;;9.18;;
72974;SDS011;61166;54.228;37.632;2023-07-31T08:28:22;11.55;;;10.57;;
72974;SDS011;61166;54.228;37.632;2023-07-31T08:30:48;11.75;;;10.10;;
72974;SDS011;61166;54.228;37.632;2023-07-31T08:33:15;13.43;;;10.40;;
72974;SDS011;61166;54.228;37.632;2023-07-31T08:35:41;9.50;;;8.60;;
72974;SDS011;61166;54.228;37.632;2023-07-31T08:38:08;9.93;;;8.93;;
72974;SDS011;61166;54.228;37.632;2023-07-31T08:40:37;12.15;;;9.23;;
72974;SDS011;61166;54.228;37.632;2023-07-31T08:43:04;10.43;;;9.32;;
72974;SDS011;61166;54.228;37.632;2023-07-31T08:45:30;9.80;;;8.82;;
72974;SDS011;61166;54.228;37.632;2023-07-31T08:47:57;10.27;;;9.30;;
72974;SDS011;61166;54.228;37.632;2023-07-31T08:50:25;11.43;;;10.35;;
72974;SDS011;61166;54.228;37.632;2023-07-31T08:52:51;10.40;;;9.38;;
72974;SDS011;61166;54.228;37.632;2023-07-31T08:55:19;11.43;;;10.38;;
72974;SDS011;61166;54.228;37.632;2023-07-31T08:57:46;11.25;;;9.25;;
72974;SDS011;61166;54.228;37.632;2023-07-31T09:00:13;10.67;;;9.77;;
72974;SDS011;61166;54.228;37.632;2023-07-31T09:02:46;11.13;;;8.98;;
72974;SDS011;61166;54.228;37.632;2023-07-31T09:05:14;10.55;;;9.55;;
72974;SDS011;61166;54.228;37.632;2023-07-31T09:07:41;10.13;;;9.27;;
72974;SDS011;61166;54.228;37.632;2023-07-31T09:10:09;10.60;;;9.60;;
72974;SDS011;61166;54.228;37.632;2023-07-31T09:12:35;9.80;;;8.97;;
72974;SDS011;61166;54.228;37.632;2023-07-31T09:15:03;10.55;;;9.65;;
72974;SDS011;61166;54.228;37.632;2023-07-31T09:17:30;10.40;;;9.40;;
72974;SDS011;61166;54.228;37.632;2023-07-31T09:19:57;11.02;;;10.15;;
72974;SDS011;61166;54.228;37.632;2023-07-31T09:22:31;9.77;;;8.98;;
72974;SDS011;61166;54.228;37.632;2023-07-31T09:25:14;10.50;;;9.47;;
72974;SDS011;61166;54.228;37.632;2023-07-31T09:27:45;10.93;;;10.05;;
72974;SDS011;61166;54.228;37.632;2023-07-31T09:30:12;10.43;;;9.60;;
72974;SDS011;61166;54.228;37.632;2023-07-31T09:32:38;9.95;;;9.13;;
72974;SDS011;61166;54.228;37.632;2023-07-31T09:35:18;9.90;;;7.82;;
72974;SDS011;61166;54.228;37.632;2023-07-31T09:37:48;8.50;;;7.73;;
72974;SDS011;61166;54.228;37.632;2023-07-31T09:40:24;9.48;;;8.20;;
72974;SDS011;61166;54.228;37.632;2023-07-31T09:42:51;9.23;;;8.43;;
72974;SDS011;61166;54.228;37.632;2023-07-31T09:45:17;8.63;;;7.88;;
72974;SDS011;61166;54.228;37.632;2023-07-31T09:47:53;9.30;;;7.32;;
72974;SDS011;61166;54.228;37.632;2023-07-31T09:50:22;7.97;;;7.17;;
72974;SDS011;61166;54.228;37.632;2023-07-31T09:52:48;8.63;;;6.65;;
72974;SDS011;61166;54.228;37.632;2023-07-31T09:55:15;13.30;;;7.03;;
72974;SDS011;61166;54.228;37.632;2023-07-31T09:57:44;8.23;;;6.85;;
72974;SDS011;61166;54.228;37.632;2023-07-31T10:00:11;8.00;;;6.93;;
72974;SDS011;61166;54.228;37.632;2023-07-31T10:02:38;7.53;;;6.00;;
72974;SDS011;61166;54.228;37.632;2023-07-31T10:05:05;6.82;;;5.63;;
72974;SDS011;61166;54.228;37.632;2023-07-31T10:07:38;6.82;;;5.47;;
72974;SDS011;61166;54.228;37.632;2023-07-31T10:10:05;6.22;;;4.95;;
72974;SDS011;61166;54.228;37.632;2023-07-31T10:12:33;8.95;;;5.47;;
72974;SDS011;61166;54.228;37.632;2023-07-31T10:15:01;7.53;;;4.77;;
72974;SDS011;61166;54.228;37.632;2023-07-31T10:17:28;6.28;;;4.20;;
72974;SDS011;61166;54.228;37.632;2023-07-31T10:19:56;8.35;;;5.18;;
72974;SDS011;61166;54.228;37.632;2023-07-31T10:22:22;8.80;;;5.10;;
72974;SDS011;61166;54.228;37.632;2023-07-31T10:24:50;7.55;;;5.20;;
72974;SDS011;61166;54.228;37.632;2023-07-31T10:27:19;7.70;;;5.07;;
72974;SDS011;61166;54.228;37.632;2023-07-31T10:29:45;7.53;;;5.63;;
72974;SDS011;61166;54.228;37.632;2023-07-31T10:32:13;8.25;;;4.35;;
72974;SDS011;61166;54.228;37.632;2023-07-31T10:34:41;9.93;;;5.18;;
72974;SDS011;61166;54.228;37.632;2023-07-31T10:40:06;8.47;;;5.03;;
72974;SDS011;61166;54.228;37.632;2023-07-31T10:42:34;11.68;;;8.20;;
72974;SDS011;61166;54.228;37.632;2023-07-31T10:45:05;6.88;;;5.07;;
72974;SDS011;61166;54.228;37.632;2023-07-31T10:47:38;7.55;;;4.85;;
72974;SDS011;61166;54.228;37.632;2023-07-31T10:52:37;8.60;;;5.67;;
72974;SDS011;61166;54.228;37.632;2023-07-31T10:58:10;7.13;;;5.38;;
72974;SDS011;61166;54.228;37.632;2023-07-31T11:00:38;8.48;;;5.35;;
72974;SDS011;61166;54.228;37.632;2023-07-31T11:03:09;9.27;;;6.15;;
72974;SDS011;61166;54.228;37.632;2023-07-31T11:05:53;11.07;;;6.07;;
72974;SDS011;61166;54.228;37.632;2023-07-31T11:08:27;13.68;;;6.82;;
72974;SDS011;61166;54.228;37.632;2023-07-31T11:13:32;9.65;;;6.47;;
72974;SDS011;61166;54.228;37.632;2023-07-31T11:15:59;8.32;;;5.30;;
72974;SDS011;61166;54.228;37.632;2023-07-31T11:18:25;8.20;;;5.80;;
72974;SDS011;61166;54.228;37.632;2023-07-31T11:20:53;8.85;;;5.57;;
72974;SDS011;61166;54.228;37.632;2023-07-31T11:23:20;9.15;;;5.90;;
72974;SDS011;61166;54.228;37.632;2023-07-31T11:25:46;9.43;;;6.07;;
72974;SDS011;61166;54.228;37.632;2023-07-31T11:28:14;15.85;;;11.60;;
72974;SDS011;61166;54.228;37.632;2023-07-31T11:30:41;8.97;;;5.73;;
72974;SDS011;61166;54.228;37.632;2023-07-31T11:33:09;7.38;;;5.55;;
72974;SDS011;61166;54.228;37.632;2023-07-31T11:35:40;8.27;;;5.43;;
72974;SDS011;61166;54.228;37.632;2023-07-31T11:38:07;7.75;;;5.10;;
72974;SDS011;61166;54.228;37.632;2023-07-31T11:40:43;8.68;;;5.18;;
72974;SDS011;61166;54.228;37.632;2023-07-31T11:43:10;10.03;;;5.60;;
72974;SDS011;61166;54.228;37.632;2023-07-31T11:45:37;8.13;;;5.10;;
72974;SDS011;61166;54.228;37.632;2023-07-31T11:48:04;8.88;;;5.47;;
72974;SDS011;61166;54.228;37.632;2023-07-31T11:50:32;7.90;;;5.13;;
72974;SDS011;61166;54.228;37.632;2023-07-31T11:53:00;11.23;;;5.20;;
72974;SDS011;61166;54.228;37.632;2023-07-31T11:55:27;10.33;;;5.43;;
72974;SDS011;61166;54.228;37.632;2023-07-31T11:57:56;7.78;;;4.97;;
72974;SDS011;61166;54.228;37.632;2023-07-31T12:00:23;7.22;;;4.93;;
72974;SDS011;61166;54.228;37.632;2023-07-31T12:02:50;7.68;;;4.80;;
72974;SDS011;61166;54.228;37.632;2023-07-31T12:05:17;7.00;;;4.43;;
72974;SDS011;61166;54.228;37.632;2023-07-31T12:07:49;8.77;;;5.03;;
72974;SDS011;61166;54.228;37.632;2023-07-31T12:10:29;7.07;;;4.25;;
72974;SDS011;61166;54.228;37.632;2023-07-31T12:13:02;9.93;;;4.68;;
72974;SDS011;61166;54.228;37.632;2023-07-31T12:15:30;11.68;;;4.60;;
72974;SDS011;61166;54.228;37.632;2023-07-31T12:17:58;7.75;;;4.82;;
72974;SDS011;61166;54.228;37.632;2023-07-31T12:20:25;9.17;;;5.03;;
72974;SDS011;61166;54.228;37.632;2023-07-31T12:22:52;11.82;;;4.80;;
72974;SDS011;61166;54.228;37.632;2023-07-31T12:25:18;12.05;;;6.22;;
72974;SDS011;61166;54.228;37.632;2023-07-31T12:27:45;8.55;;;5.30;;
72974;SDS011;61166;54.228;37.632;2023-07-31T12:30:31;10.75;;;5.18;;
72974;SDS011;61166;54.228;37.632;2023-07-31T12:33:02;11.17;;;7.00;;
72974;SDS011;61166;54.228;37.632;2023-07-31T12:35:34;13.80;;;6.50;;
72974;SDS011;61166;54.228;37.632;2023-07-31T12:38:02;11.85;;;6.07;;
72974;SDS011;61166;54.228;37.632;2023-07-31T12:40:28;12.43;;;7.03;;
72974;SDS011;61166;54.228;37.632;2023-07-31T12:43:00;10.20;;;5.47;;
72974;SDS011;61166;54.228;37.632;2023-07-31T12:45:27;10.83;;;5.70;;
72974;SDS011;61166;54.228;37.632;2023-07-31T12:47:53;11.80;;;5.93;;
72974;SDS011;61166;54.228;37.632;2023-07-31T12:50:20;10.85;;;5.88;;
72974;SDS011;61166;54.228;37.632;2023-07-31T12:52:47;11.70;;;5.32;;
72974;SDS011;61166;54.228;37.632;2023-07-31T12:55:13;8.98;;;5.47;;
72974;SDS011;61166;54.228;37.632;2023-07-31T12:57:40;10.97;;;6.13;;
72974;SDS011;61166;54.228;37.632;2023-07-31T13:00:06;16.25;;;6.35;;
72974;SDS011;61166;54.228;37.632;2023-07-31T13:02:33;16.13;;;6.20;;
72974;SDS011;61166;54.228;37.632;2023-07-31T13:04:59;12.77;;;5.47;;
72974;SDS011;61166;54.228;37.632;2023-07-31T13:07:26;13.40;;;5.70;;
72974;SDS011;61166;54.228;37.632;2023-07-31T13:09:52;12.00;;;4.83;;
72974;SDS011;61166;54.228;37.632;2023-07-31T13:12:19;9.45;;;4.90;;
72974;SDS011;61166;54.228;37.632;2023-07-31T13:14:45;8.00;;;5.13;;
72974;SDS011;61166;54.228;37.632;2023-07-31T13:17:12;12.63;;;7.70;;
72974;SDS011;61166;54.228;37.632;2023-07-31T13:19:38;15.88;;;9.32;;
72974;SDS011;61166;54.228;37.632;2023-07-31T13:22:05;16.57;;;8.00;;
72974;SDS011;61166;54.228;37.632;2023-07-31T13:24:31;10.60;;;6.88;;
72974;SDS011;61166;54.228;37.632;2023-07-31T13:26:58;9.65;;;5.72;;
72974;SDS011;61166;54.228;37.632;2023-07-31T13:29:24;10.20;;;5.93;;
72974;SDS011;61166;54.228;37.632;2023-07-31T13:31:51;10.70;;;6.05;;
72974;SDS011;61166;54.228;37.632;2023-07-31T13:34:18;9.90;;;5.33;;
72974;SDS011;61166;54.228;37.632;2023-07-31T13:36:44;23.17;;;16.17;;
72974;SDS011;61166;54.228;37.632;2023-07-31T13:39:11;12.55;;;6.28;;
72974;SDS011;61166;54.228;37.632;2023-07-31T13:41:37;10.40;;;5.93;;
72974;SDS011;61166;54.228;37.632;2023-07-31T13:44:04;8.80;;;5.32;;
72974;SDS011;61166;54.228;37.632;2023-07-31T13:46:30;8.77;;;5.43;;
72974;SDS011;61166;54.228;37.632;2023-07-31T13:48:57;10.00;;;5.90;;
72974;SDS011;61166;54.228;37.632;2023-07-31T13:51:23;10.57;;;6.10;;
72974;SDS011;61166;54.228;37.632;2023-07-31T13:53:49;11.60;;;6.13;;
72974;SDS011;61166;54.228;37.632;2023-07-31T13:56:16;11.63;;;6.35;;
72974;SDS011;61166;54.228;37.632;2023-07-31T13:58:42;11.87;;;6.20;;
72974;SDS011;61166;54.228;37.632;2023-07-31T14:01:09;11.57;;;6.45;;
72974;SDS011;61166;54.228;37.632;2023-07-31T14:03:35;10.90;;;6.30;;
72974;SDS011;61166;54.228;37.632;2023-07-31T14:06:02;11.77;;;5.53;;
72974;SDS011;61166;54.228;37.632;2023-07-31T14:08:28;10.82;;;5.25;;
72974;SDS011;61166;54.228;37.632;2023-07-31T14:10:55;10.30;;;5.53;;
72974;SDS011;61166;54.228;37.632;2023-07-31T14:13:21;11.85;;;5.20;;
72974;SDS011;61166;54.228;37.632;2023-07-31T14:15:48;19.95;;;12.77;;
72974;SDS011;61166;54.228;37.632;2023-07-31T14:18:14;10.27;;;5.20;;
72974;SDS011;61166;54.228;37.632;2023-07-31T14:20:41;9.00;;;5.40;;
72974;SDS011;61166;54.228;37.632;2023-07-31T14:23:08;10.80;;;5.20;;
72974;SDS011;61166;54.228;37.632;2023-07-31T14:25:34;9.63;;;5.07;;
72974;SDS011;61166;54.228;37.632;2023-07-31T14:28:01;10.85;;;4.88;;
72974;SDS011;61166;54.228;37.632;2023-07-31T14:30:28;8.35;;;4.72;;